sensor_id;sensor_type;location;lat;lon;timestamp;pressure;altitude;pressure_sealevel;temperature;humidity
11099;BME280;12223;42.650;23.364;2023-05-02T00:01:40;95057.41;;;13.07;100.00
11099;BME280;12223;42.650;23.364;2023-05-02T00:04:08;95059.59;;;13.10;100.00
11099;BME280;12223;42.650;23.364;2023-05-02T00:06:37;95054.28;;;12.99;100.00
11099;BME280;12223;42.650;23.364;2023-05-02T00:09:07;95061.28;;;12.93;100.00
11099;BME280;12223;42.650;23.364;2023-05-02T00:11:37;95052.75;;;12.91;100.00
11099;BME280;12223;42.650;23.364;2023-05-02T00:14:05;95049.84;;;12.81;100.00
11099;BME280;12223;42.650;23.364;2023-05-02T00:16:32;95057.13;;;12.85;100.00
11099;BME280;12223;42.650;23.364;2023-05-02T00:18:59;95060.53;;;12.74;100.00
11099;BME280;12223;42.650;23.364;2023-05-02T00:21:27;95057.94;;;12.86;100.00
11099;BME280;12223;42.650;23.364;2023-05-02T00:23:55;95060.88;;;12.78;100.00
11099;BME280;12223;42.650;23.364;2023-05-02T00:26:23;95058.41;;;12.83;100.00
11099;BME280;12223;42.650;23.364;2023-05-02T00:28:53;95066.16;;;12.66;100.00
11099;BME280;12223;42.650;23.364;2023-05-02T00:31:20;95059.28;;;12.77;100.00
11099;BME280;12223;42.650;23.364;2023-05-02T00:33:47;95065.75;;;12.81;100.00
11099;BME280;12223;42.650;23.364;2023-05-02T00:36:14;95068.53;;;12.86;100.00
11099;BME280;12223;42.650;23.364;2023-05-02T00:38:42;95061.94;;;12.77;100.00
11099;BME280;12223;42.650;23.364;2023-05-02T00:41:12;95067.50;;;12.87;100.00
11099;BME280;12223;42.650;23.364;2023-05-02T00:43:39;95076.25;;;12.87;100.00
11099;BME280;12223;42.650;23.364;2023-05-02T00:46:16;95091.00;;;12.83;100.00
11099;BME280;12223;42.650;23.364;2023-05-02T00:48:44;95082.69;;;12.80;100.00
11099;BME280;12223;42.650;23.364;2023-05-02T00:51:12;95083.44;;;12.69;100.00
11099;BME280;12223;42.650;23.364;2023-05-02T00:53:50;95081.31;;;12.59;100.00
11099;BME280;12223;42.650;23.364;2023-05-02T00:56:18;95072.34;;;12.60;100.00
11099;BME280;12223;42.650;23.364;2023-05-02T00:58:47;95089.19;;;12.66;100.00
11099;BME280;12223;42.650;23.364;2023-05-02T01:01:26;95081.16;;;12.72;100.00
11099;BME280;12223;42.650;23.364;2023-05-02T01:04:12;95079.78;;;12.70;100.00
11099;BME280;12223;42.650;23.364;2023-05-02T01:07:07;95073.47;;;12.53;100.00
11099;BME280;12223;42.650;23.364;2023-05-02T01:09:41;95073.53;;;12.46;100.00
11099;BME280;12223;42.650;23.364;2023-05-02T01:12:26;95073.13;;;12.49;100.00
11099;BME280;12223;42.650;23.364;2023-05-02T01:14:55;95076.88;;;12.41;100.00
11099;BME280;12223;42.650;23.364;2023-05-02T01:17:28;95077.59;;;12.48;100.00
11099;BME280;12223;42.650;23.364;2023-05-02T01:20:02;95079.91;;;12.45;100.00
11099;BME280;12223;42.650;23.364;2023-05-02T01:22:31;95075.25;;;12.40;100.00
11099;BME280;12223;42.650;23.364;2023-05-02T01:25:03;95076.69;;;12.55;100.00
11099;BME280;12223;42.650;23.364;2023-05-02T01:27:39;95063.84;;;12.58;100.00
11099;BME280;12223;42.650;23.364;2023-05-02T01:30:12;95071.88;;;12.52;100.00
11099;BME280;12223;42.650;23.364;2023-05-02T01:32:42;95061.28;;;12.52;100.00
11099;BME280;12223;42.650;23.364;2023-05-02T01:35:12;95071.06;;;12.51;100.00
11099;BME280;12223;42.650;23.364;2023-05-02T01:37:44;95078.53;;;12.54;100.00
11099;BME280;12223;42.650;23.364;2023-05-02T01:40:18;95078.75;;;12.53;100.00
11099;BME280;12223;42.650;23.364;2023-05-02T01:42:48;95085.31;;;12.50;100.00
11099;BME280;12223;42.650;23.364;2023-05-02T01:45:18;95093.22;;;12.38;100.00
11099;BME280;12223;42.650;23.364;2023-05-02T01:47:47;95091.22;;;12.34;100.00
11099;BME280;12223;42.650;23.364;2023-05-02T01:50:19;95085.78;;;12.29;100.00
11099;BME280;12223;42.650;23.364;2023-05-02T01:52:57;95088.88;;;12.26;100.00
11099;BME280;12223;42.650;23.364;2023-05-02T01:55:26;95096.91;;;12.19;100.00
11099;BME280;12223;42.650;23.364;2023-05-02T01:57:55;95076.00;;;12.11;100.00
11099;BME280;12223;42.650;23.364;2023-05-02T02:00:24;95086.25;;;12.07;100.00
11099;BME280;12223;42.650;23.364;2023-05-02T02:02:53;95083.88;;;11.99;100.00
11099;BME280;12223;42.650;23.364;2023-05-02T02:05:21;95071.00;;;11.85;100.00
11099;BME280;12223;42.650;23.364;2023-05-02T02:07:50;95079.22;;;11.77;100.00
11099;BME280;12223;42.650;23.364;2023-05-02T02:10:19;95082.19;;;11.62;100.00
11099;BME280;12223;42.650;23.364;2023-05-02T02:12:51;95067.84;;;11.51;100.00
11099;BME280;12223;42.650;23.364;2023-05-02T02:15:27;95071.47;;;11.57;100.00
11099;BME280;12223;42.650;23.364;2023-05-02T02:17:58;95077.72;;;11.62;100.00
11099;BME280;12223;42.650;23.364;2023-05-02T02:20:28;95072.19;;;11.64;100.00
11099;BME280;12223;42.650;23.364;2023-05-02T02:22:58;95074.63;;;11.65;100.00
11099;BME280;12223;42.650;23.364;2023-05-02T02:25:27;95065.06;;;11.64;100.00
11099;BME280;12223;42.650;23.364;2023-05-02T02:28:11;95066.91;;;11.64;100.00
11099;BME280;12223;42.650;23.364;2023-05-02T02:30:44;95073.25;;;11.63;100.00
11099;BME280;12223;42.650;23.364;2023-05-02T02:33:11;95070.00;;;11.61;100.00
11099;BME280;12223;42.650;23.364;2023-05-02T02:35:49;95068.81;;;11.57;100.00
11099;BME280;12223;42.650;23.364;2023-05-02T02:38:28;95065.56;;;11.55;100.00
11099;BME280;12223;42.650;23.364;2023-05-02T02:41:05;95072.03;;;11.59;100.00
11099;BME280;12223;42.650;23.364;2023-05-02T02:43:46;95076.53;;;11.58;100.00
11099;BME280;12223;42.650;23.364;2023-05-02T02:46:28;95073.88;;;11.58;100.00
11099;BME280;12223;42.650;23.364;2023-05-02T02:49:20;95074.47;;;11.60;100.00
11099;BME280;12223;42.650;23.364;2023-05-02T02:51:59;95071.53;;;11.50;100.00
11099;BME280;12223;42.650;23.364;2023-05-02T02:54:34;95078.16;;;11.59;100.00
11099;BME280;12223;42.650;23.364;2023-05-02T02:57:06;95063.00;;;11.48;100.00
11099;BME280;12223;42.650;23.364;2023-05-02T02:59:47;95081.97;;;11.63;100.00
11099;BME280;12223;42.650;23.364;2023-05-02T03:02:17;95083.66;;;11.58;100.00
11099;BME280;12223;42.650;23.364;2023-05-02T03:04:46;95065.63;;;11.48;100.00
11099;BME280;12223;42.650;23.364;2023-05-02T03:07:15;95087.84;;;11.65;100.00
11099;BME280;12223;42.650;23.364;2023-05-02T03:09:42;95083.06;;;11.56;100.00
11099;BME280;12223;42.650;23.364;2023-05-02T03:12:09;95093.81;;;11.61;100.00
11099;BME280;12223;42.650;23.364;2023-05-02T03:14:37;95095.19;;;11.63;100.00
11099;BME280;12223;42.650;23.364;2023-05-02T03:17:05;95096.81;;;11.64;100.00
11099;BME280;12223;42.650;23.364;2023-05-02T03:19:53;95108.41;;;11.63;100.00
11099;BME280;12223;42.650;23.364;2023-05-02T03:22:21;95102.69;;;11.66;100.00
11099;BME280;12223;42.650;23.364;2023-05-02T03:24:49;95114.81;;;11.56;100.00
11099;BME280;12223;42.650;23.364;2023-05-02T03:27:15;95114.91;;;11.67;100.00
11099;BME280;12223;42.650;23.364;2023-05-02T03:29:44;95098.06;;;11.62;100.00
11099;BME280;12223;42.650;23.364;2023-05-02T03:32:12;95110.63;;;11.66;100.00
11099;BME280;12223;42.650;23.364;2023-05-02T03:34:39;95116.13;;;11.65;100.00
11099;BME280;12223;42.650;23.364;2023-05-02T03:37:08;95121.00;;;11.68;100.00
11099;BME280;12223;42.650;23.364;2023-05-02T03:39:35;95108.16;;;11.72;100.00
11099;BME280;12223;42.650;23.364;2023-05-02T03:42:03;95118.72;;;11.96;100.00
11099;BME280;12223;42.650;23.364;2023-05-02T03:44:30;95118.66;;;12.39;100.00
11099;BME280;12223;42.650;23.364;2023-05-02T03:47:08;95121.59;;;12.68;100.00
11099;BME280;12223;42.650;23.364;2023-05-02T03:49:39;95117.00;;;13.05;100.00
11099;BME280;12223;42.650;23.364;2023-05-02T03:52:08;95121.03;;;13.37;100.00
11099;BME280;12223;42.650;23.364;2023-05-02T03:54:37;95129.84;;;13.73;100.00
11099;BME280;12223;42.650;23.364;2023-05-02T03:57:07;95118.09;;;14.15;100.00
11099;BME280;12223;42.650;23.364;2023-05-02T03:59:34;95117.41;;;14.71;100.00
11099;BME280;12223;42.650;23.364;2023-05-02T04:02:06;95114.53;;;15.18;93.99
11099;BME280;12223;42.650;23.364;2023-05-02T04:04:33;95101.97;;;15.58;86.96
11099;BME280;12223;42.650;23.364;2023-05-02T04:07:03;95117.63;;;16.27;80.63
11099;BME280;12223;42.650;23.364;2023-05-02T04:09:31;95119.41;;;16.60;74.32
11099;BME280;12223;42.650;23.364;2023-05-02T04:11:58;95115.38;;;17.01;71.31
11099;BME280;12223;42.650;23.364;2023-05-02T04:14:26;95116.28;;;17.38;67.49
11099;BME280;12223;42.650;23.364;2023-05-02T04:16:53;95120.06;;;17.69;65.24
11099;BME280;12223;42.650;23.364;2023-05-02T04:19:20;95100.66;;;17.84;63.38
11099;BME280;12223;42.650;23.364;2023-05-02T04:21:47;95112.00;;;18.01;60.97
11099;BME280;12223;42.650;23.364;2023-05-02T04:24:16;95102.78;;;18.19;60.62
11099;BME280;12223;42.650;23.364;2023-05-02T04:26:46;95113.44;;;18.61;58.49
11099;BME280;12223;42.650;23.364;2023-05-02T04:29:14;95115.75;;;18.47;57.06
11099;BME280;12223;42.650;23.364;2023-05-02T04:31:42;95120.13;;;18.58;56.73
11099;BME280;12223;42.650;23.364;2023-05-02T04:34:09;95124.00;;;18.87;55.19
11099;BME280;12223;42.650;23.364;2023-05-02T04:36:39;95125.69;;;19.29;53.33
11099;BME280;12223;42.650;23.364;2023-05-02T04:39:08;95125.50;;;19.41;52.55
11099;BME280;12223;42.650;23.364;2023-05-02T04:41:38;95113.47;;;19.53;51.27
11099;BME280;12223;42.650;23.364;2023-05-02T04:44:18;95136.78;;;20.19;49.36
11099;BME280;12223;42.650;23.364;2023-05-02T04:50:08;95132.75;;;19.86;49.53
11099;BME280;12223;42.650;23.364;2023-05-02T04:52:47;95133.56;;;20.12;47.49
11099;BME280;12223;42.650;23.364;2023-05-02T04:55:14;95128.75;;;19.73;47.72
11099;BME280;12223;42.650;23.364;2023-05-02T04:57:41;95103.53;;;20.04;46.97
11099;BME280;12223;42.650;23.364;2023-05-02T05:00:11;95109.72;;;20.10;46.19
11099;BME280;12223;42.650;23.364;2023-05-02T05:02:38;95154.75;;;20.33;46.15
11099;BME280;12223;42.650;23.364;2023-05-02T05:05:05;95134.91;;;20.19;46.39
11099;BME280;12223;42.650;23.364;2023-05-02T05:07:32;95105.81;;;20.77;44.81
11099;BME280;12223;42.650;23.364;2023-05-02T05:09:59;95152.91;;;21.67;43.31
11099;BME280;12223;42.650;23.364;2023-05-02T05:12:26;95129.72;;;21.33;42.90
11099;BME280;12223;42.650;23.364;2023-05-02T05:14:52;95142.59;;;21.41;42.74
11099;BME280;12223;42.650;23.364;2023-05-02T05:17:21;95145.34;;;21.25;43.16
11099;BME280;12223;42.650;23.364;2023-05-02T05:19:48;95150.53;;;21.02;43.05
11099;BME280;12223;42.650;23.364;2023-05-02T05:22:15;95153.66;;;19.63;46.17
11099;BME280;12223;42.650;23.364;2023-05-02T05:24:42;95040.72;;;18.79;46.29
11099;BME280;12223;42.650;23.364;2023-05-02T05:27:09;95143.56;;;19.03;47.86
11099;BME280;12223;42.650;23.364;2023-05-02T05:29:35;95148.09;;;18.93;48.47
11099;BME280;12223;42.650;23.364;2023-05-02T05:32:14;95161.53;;;19.08;48.25
11099;BME280;12223;42.650;23.364;2023-05-02T05:35:19;95096.03;;;19.56;46.00
11099;BME280;12223;42.650;23.364;2023-05-02T05:38:06;95138.94;;;18.31;48.83
11099;BME280;12223;42.650;23.364;2023-05-02T05:40:48;95162.56;;;18.07;50.57
11099;BME280;12223;42.650;23.364;2023-05-02T05:43:19;95153.53;;;18.14;50.59
11099;BME280;12223;42.650;23.364;2023-05-02T05:45:50;95167.56;;;17.67;52.15
11099;BME280;12223;42.650;23.364;2023-05-02T05:48:19;95140.69;;;17.79;52.26
11099;BME280;12223;42.650;23.364;2023-05-02T05:50:53;95167.75;;;18.24;51.21
11099;BME280;12223;42.650;23.364;2023-05-02T05:53:24;95165.75;;;18.04;50.89
11099;BME280;12223;42.650;23.364;2023-05-02T05:55:55;95115.56;;;17.21;52.10
11099;BME280;12223;42.650;23.364;2023-05-02T05:58:35;95163.34;;;16.74;54.88
11099;BME280;12223;42.650;23.364;2023-05-02T06:01:15;95180.31;;;16.89;56.76
11099;BME280;12223;42.650;23.364;2023-05-02T06:03:47;95165.31;;;16.83;56.03
11099;BME280;12223;42.650;23.364;2023-05-02T06:06:29;95176.69;;;16.74;56.83
11099;BME280;12223;42.650;23.364;2023-05-02T06:08:59;95171.63;;;16.56;56.46
11099;BME280;12223;42.650;23.364;2023-05-02T06:11:26;95185.47;;;16.36;57.35
11099;BME280;12223;42.650;23.364;2023-05-02T06:13:58;95174.28;;;16.56;56.84
11099;BME280;12223;42.650;23.364;2023-05-02T06:16:26;95166.22;;;16.34;57.07
11099;BME280;12223;42.650;23.364;2023-05-02T06:19:08;95166.31;;;16.39;58.37
11099;BME280;12223;42.650;23.364;2023-05-02T06:21:49;95169.75;;;16.56;57.06
11099;BME280;12223;42.650;23.364;2023-05-02T06:24:16;95171.81;;;16.32;56.93
11099;BME280;12223;42.650;23.364;2023-05-02T06:26:43;95168.53;;;16.08;59.94
11099;BME280;12223;42.650;23.364;2023-05-02T06:29:10;95160.47;;;16.03;58.38
11099;BME280;12223;42.650;23.364;2023-05-02T06:31:37;95173.00;;;16.41;58.65
11099;BME280;12223;42.650;23.364;2023-05-02T06:34:04;95165.13;;;16.90;58.89
11099;BME280;12223;42.650;23.364;2023-05-02T06:36:31;95167.31;;;17.20;56.29
11099;BME280;12223;42.650;23.364;2023-05-02T06:39:01;95168.94;;;16.94;54.03
11099;BME280;12223;42.650;23.364;2023-05-02T06:41:29;95165.63;;;17.09;53.93
11099;BME280;12223;42.650;23.364;2023-05-02T06:43:56;95168.81;;;17.33;53.42
11099;BME280;12223;42.650;23.364;2023-05-02T06:46:28;95162.03;;;17.74;52.64
11099;BME280;12223;42.650;23.364;2023-05-02T06:48:59;95152.19;;;17.52;51.80
11099;BME280;12223;42.650;23.364;2023-05-02T06:51:27;95132.63;;;17.47;51.39
11099;BME280;12223;42.650;23.364;2023-05-02T06:54:02;95164.34;;;17.38;51.51
11099;BME280;12223;42.650;23.364;2023-05-02T06:56:36;95149.06;;;17.34;51.38
11099;BME280;12223;42.650;23.364;2023-05-02T06:59:04;95162.63;;;17.54;51.55
11099;BME280;12223;42.650;23.364;2023-05-02T07:01:33;95156.13;;;17.72;50.56
11099;BME280;12223;42.650;23.364;2023-05-02T07:04:01;95154.84;;;17.79;50.14
11099;BME280;12223;42.650;23.364;2023-05-02T07:06:30;95141.47;;;17.74;48.40
11099;BME280;12223;42.650;23.364;2023-05-02T07:09:03;95141.28;;;17.59;48.03
11099;BME280;12223;42.650;23.364;2023-05-02T07:11:33;95162.47;;;17.39;49.29
11099;BME280;12223;42.650;23.364;2023-05-02T07:14:05;95166.94;;;17.60;48.49
11099;BME280;12223;42.650;23.364;2023-05-02T07:16:35;95159.41;;;17.79;48.49
11099;BME280;12223;42.650;23.364;2023-05-02T07:19:15;95156.59;;;17.63;47.62
11099;BME280;12223;42.650;23.364;2023-05-02T07:21:51;95100.84;;;17.13;47.90
11099;BME280;12223;42.650;23.364;2023-05-02T07:24:22;95158.72;;;17.93;47.88
11099;BME280;12223;42.650;23.364;2023-05-02T07:26:59;95160.19;;;17.79;47.35
11099;BME280;12223;42.650;23.364;2023-05-02T07:29:28;95151.50;;;17.62;48.29
11099;BME280;12223;42.650;23.364;2023-05-02T07:32:01;95158.75;;;17.98;48.06
11099;BME280;12223;42.650;23.364;2023-05-02T07:34:33;95161.84;;;18.22;47.21
11099;BME280;12223;42.650;23.364;2023-05-02T07:37:05;95139.38;;;18.18;46.15
11099;BME280;12223;42.650;23.364;2023-05-02T07:39:37;95143.00;;;18.39;46.19
11099;BME280;12223;42.650;23.364;2023-05-02T07:42:06;95156.22;;;18.56;45.21
11099;BME280;12223;42.650;23.364;2023-05-02T07:44:34;95152.44;;;18.52;45.64
11099;BME280;12223;42.650;23.364;2023-05-02T07:47:03;95157.47;;;18.48;45.57
11099;BME280;12223;42.650;23.364;2023-05-02T07:49:30;95157.88;;;18.25;45.32
11099;BME280;12223;42.650;23.364;2023-05-02T07:51:58;95146.22;;;18.04;45.46
11099;BME280;12223;42.650;23.364;2023-05-02T07:54:26;95156.66;;;18.05;45.81
11099;BME280;12223;42.650;23.364;2023-05-02T07:56:56;95147.63;;;17.75;46.30
11099;BME280;12223;42.650;23.364;2023-05-02T07:59:30;95156.56;;;17.37;47.09
11099;BME280;12223;42.650;23.364;2023-05-02T08:01:57;95161.13;;;17.14;48.06
11099;BME280;12223;42.650;23.364;2023-05-02T08:04:24;95138.28;;;16.75;48.71
11099;BME280;12223;42.650;23.364;2023-05-02T08:06:53;95161.94;;;16.88;48.70
11099;BME280;12223;42.650;23.364;2023-05-02T08:09:26;95156.44;;;16.78;49.82
11099;BME280;12223;42.650;23.364;2023-05-02T08:11:56;95139.53;;;17.16;49.09
11099;BME280;12223;42.650;23.364;2023-05-02T08:14:24;95144.69;;;17.49;48.18
11099;BME280;12223;42.650;23.364;2023-05-02T08:16:51;95150.91;;;17.60;48.22
11099;BME280;12223;42.650;23.364;2023-05-02T08:19:19;95137.81;;;17.85;46.83
11099;BME280;12223;42.650;23.364;2023-05-02T08:21:47;95147.59;;;18.06;46.24
11099;BME280;12223;42.650;23.364;2023-05-02T08:24:16;95149.13;;;17.97;46.48
11099;BME280;12223;42.650;23.364;2023-05-02T08:26:59;95152.75;;;18.18;46.28
11099;BME280;12223;42.650;23.364;2023-05-02T08:29:28;95160.41;;;18.04;46.22
11099;BME280;12223;42.650;23.364;2023-05-02T08:31:57;95157.03;;;17.82;45.69
11099;BME280;12223;42.650;23.364;2023-05-02T08:34:25;95138.13;;;17.89;46.21
11099;BME280;12223;42.650;23.364;2023-05-02T08:36:52;95122.84;;;17.84;46.52
11099;BME280;12223;42.650;23.364;2023-05-02T08:39:21;95147.66;;;18.17;45.25
11099;BME280;12223;42.650;23.364;2023-05-02T08:41:49;95142.44;;;18.37;45.88
11099;BME280;12223;42.650;23.364;2023-05-02T08:44:20;95149.03;;;18.61;44.46
11099;BME280;12223;42.650;23.364;2023-05-02T08:46:50;95139.72;;;18.79;44.01
11099;BME280;12223;42.650;23.364;2023-05-02T08:49:19;95140.34;;;18.96;42.92
11099;BME280;12223;42.650;23.364;2023-05-02T08:51:48;95123.81;;;19.09;43.77
11099;BME280;12223;42.650;23.364;2023-05-02T08:54:20;95140.19;;;19.33;42.54
11099;BME280;12223;42.650;23.364;2023-05-02T08:56:52;95140.19;;;19.33;42.59
11099;BME280;12223;42.650;23.364;2023-05-02T08:59:26;95119.47;;;19.03;41.71
11099;BME280;12223;42.650;23.364;2023-05-02T09:02:09;95127.56;;;19.28;41.93
11099;BME280;12223;42.650;23.364;2023-05-02T09:04:40;95124.69;;;19.45;42.06
11099;BME280;12223;42.650;23.364;2023-05-02T09:07:10;95120.63;;;19.27;42.38
11099;BME280;12223;42.650;23.364;2023-05-02T09:09:50;95147.22;;;18.35;43.01
11099;BME280;12223;42.650;23.364;2023-05-02T09:12:24;95116.09;;;18.14;42.68
11099;BME280;12223;42.650;23.364;2023-05-02T09:15:14;95135.03;;;18.07;42.88
11099;BME280;12223;42.650;23.364;2023-05-02T09:17:42;95125.19;;;18.13;42.69
11099;BME280;12223;42.650;23.364;2023-05-02T09:20:10;95128.06;;;18.48;42.74
11099;BME280;12223;42.650;23.364;2023-05-02T09:22:38;95117.81;;;18.77;41.75
11099;BME280;12223;42.650;23.364;2023-05-02T09:25:09;95113.19;;;18.67;41.71
11099;BME280;12223;42.650;23.364;2023-05-02T09:27:48;95114.50;;;18.60;41.79
11099;BME280;12223;42.650;23.364;2023-05-02T09:30:29;95120.28;;;18.99;41.97
11099;BME280;12223;42.650;23.364;2023-05-02T09:32:57;95101.22;;;18.85;40.46
11099;BME280;12223;42.650;23.364;2023-05-02T09:35:24;95109.06;;;19.12;39.66
11099;BME280;12223;42.650;23.364;2023-05-02T09:37:54;95113.94;;;19.25;40.42
11099;BME280;12223;42.650;23.364;2023-05-02T09:40:26;95102.41;;;19.09;40.64
11099;BME280;12223;42.650;23.364;2023-05-02T09:42:57;95110.69;;;19.23;39.93
11099;BME280;12223;42.650;23.364;2023-05-02T09:45:28;95087.97;;;19.41;38.98
11099;BME280;12223;42.650;23.364;2023-05-02T09:48:01;95091.50;;;19.61;39.96
11099;BME280;12223;42.650;23.364;2023-05-02T09:50:33;95095.97;;;19.20;38.58
11099;BME280;12223;42.650;23.364;2023-05-02T09:53:01;95093.59;;;19.34;38.32
11099;BME280;12223;42.650;23.364;2023-05-02T09:55:31;95095.25;;;19.60;38.99
11099;BME280;12223;42.650;23.364;2023-05-02T09:58:02;95096.53;;;19.38;38.21
11099;BME280;12223;42.650;23.364;2023-05-02T10:00:43;95108.78;;;19.03;38.34
11099;BME280;12223;42.650;23.364;2023-05-02T10:03:17;95089.72;;;18.84;40.27
11099;BME280;12223;42.650;23.364;2023-05-02T10:05:45;95085.53;;;19.19;39.28
11099;BME280;12223;42.650;23.364;2023-05-02T10:08:18;95086.94;;;19.57;39.00
11099;BME280;12223;42.650;23.364;2023-05-02T10:10:51;95083.19;;;19.73;37.99
11099;BME280;12223;42.650;23.364;2023-05-02T10:13:19;95076.75;;;19.94;38.32
11099;BME280;12223;42.650;23.364;2023-05-02T10:15:58;95082.88;;;20.20;36.98
11099;BME280;12223;42.650;23.364;2023-05-02T10:18:46;95074.53;;;20.32;36.26
11099;BME280;12223;42.650;23.364;2023-05-02T10:21:24;95078.28;;;20.41;36.08
11099;BME280;12223;42.650;23.364;2023-05-02T10:23:52;95071.53;;;20.59;36.08
11099;BME280;12223;42.650;23.364;2023-05-02T10:26:21;95069.84;;;20.68;35.82
11099;BME280;12223;42.650;23.364;2023-05-02T10:28:54;95071.72;;;20.77;36.39
11099;BME280;12223;42.650;23.364;2023-05-02T10:31:32;95068.19;;;20.82;35.37
11099;BME280;12223;42.650;23.364;2023-05-02T10:34:06;95065.38;;;21.07;35.20
11099;BME280;12223;42.650;23.364;2023-05-02T10:36:43;95062.19;;;21.05;34.62
11099;BME280;12223;42.650;23.364;2023-05-02T10:39:21;95051.75;;;20.29;35.29
11099;BME280;12223;42.650;23.364;2023-05-02T10:41:55;95069.53;;;19.90;35.55
11099;BME280;12223;42.650;23.364;2023-05-02T10:44:36;95068.47;;;19.65;36.12
11099;BME280;12223;42.650;23.364;2023-05-02T10:47:24;95056.94;;;19.60;36.78
11099;BME280;12223;42.650;23.364;2023-05-02T10:50:05;95054.47;;;19.99;35.86
11099;BME280;12223;42.650;23.364;2023-05-02T10:52:37;95034.06;;;20.18;35.95
11099;BME280;12223;42.650;23.364;2023-05-02T10:55:24;95054.88;;;20.57;35.40
11099;BME280;12223;42.650;23.364;2023-05-02T10:58:23;95057.13;;;20.34;34.53
11099;BME280;12223;42.650;23.364;2023-05-02T11:00:51;95040.97;;;20.44;34.17
11099;BME280;12223;42.650;23.364;2023-05-02T11:03:58;95052.72;;;20.64;34.79
11099;BME280;12223;42.650;23.364;2023-05-02T11:06:26;95055.38;;;20.74;35.24
11099;BME280;12223;42.650;23.364;2023-05-02T11:09:31;95049.25;;;20.58;34.52
11099;BME280;12223;42.650;23.364;2023-05-02T11:11:59;95028.66;;;20.38;34.95
11099;BME280;12223;42.650;23.364;2023-05-02T11:14:54;95048.00;;;20.20;35.20
11099;BME280;12223;42.650;23.364;2023-05-02T11:17:31;95049.34;;;20.33;34.91
11099;BME280;12223;42.650;23.364;2023-05-02T11:20:26;95033.38;;;19.47;35.82
11099;BME280;12223;42.650;23.364;2023-05-02T11:22:58;95036.28;;;19.91;35.87
11099;BME280;12223;42.650;23.364;2023-05-02T11:25:55;95032.03;;;19.59;36.71
11099;BME280;12223;42.650;23.364;2023-05-02T11:28:40;95040.28;;;19.88;36.10
11099;BME280;12223;42.650;23.364;2023-05-02T11:31:51;95033.56;;;20.01;36.32
11099;BME280;12223;42.650;23.364;2023-05-02T11:33:58;95032.16;;;20.24;35.75
11099;BME280;12223;42.650;23.364;2023-05-02T11:36:30;95034.75;;;20.59;35.30
11099;BME280;12223;42.650;23.364;2023-05-02T11:39:17;94991.75;;;20.69;34.95
11099;BME280;12223;42.650;23.364;2023-05-02T11:41:48;95016.66;;;21.29;34.63
11099;BME280;12223;42.650;23.364;2023-05-02T11:44:21;95014.84;;;21.53;34.59
11099;BME280;12223;42.650;23.364;2023-05-02T11:46:49;95010.06;;;21.79;33.84
11099;BME280;12223;42.650;23.364;2023-05-02T11:49:20;95018.00;;;21.89;33.69
11099;BME280;12223;42.650;23.364;2023-05-02T11:51:52;95017.53;;;21.82;34.42
11099;BME280;12223;42.650;23.364;2023-05-02T11:54:20;95006.66;;;21.97;33.71
11099;BME280;12223;42.650;23.364;2023-05-02T11:56:47;95019.31;;;21.68;33.41
11099;BME280;12223;42.650;23.364;2023-05-02T11:59:15;95009.88;;;21.37;34.26
11099;BME280;12223;42.650;23.364;2023-05-02T12:01:47;94996.50;;;21.60;34.12
11099;BME280;12223;42.650;23.364;2023-05-02T12:04:14;95007.22;;;21.65;33.83
11099;BME280;12223;42.650;23.364;2023-05-02T12:06:57;94986.25;;;21.34;34.63
11099;BME280;12223;42.650;23.364;2023-05-02T12:09:25;94987.38;;;21.56;34.03
11099;BME280;12223;42.650;23.364;2023-05-02T12:11:53;94987.00;;;21.73;33.93
11099;BME280;12223;42.650;23.364;2023-05-02T12:14:27;94997.22;;;21.42;33.66
11099;BME280;12223;42.650;23.364;2023-05-02T12:16:54;94978.44;;;20.54;34.59
11099;BME280;12223;42.650;23.364;2023-05-02T12:19:22;94981.13;;;20.98;34.92
11099;BME280;12223;42.650;23.364;2023-05-02T12:21:49;94977.19;;;20.80;34.15
11099;BME280;12223;42.650;23.364;2023-05-02T12:24:19;94963.69;;;20.52;34.39
11099;BME280;12223;42.650;23.364;2023-05-02T12:26:47;94969.91;;;20.32;34.68
11099;BME280;12223;42.650;23.364;2023-05-02T12:29:14;94980.56;;;20.57;34.75
11099;BME280;12223;42.650;23.364;2023-05-02T12:31:49;94967.88;;;20.68;34.04
11099;BME280;12223;42.650;23.364;2023-05-02T12:34:31;94954.28;;;20.93;34.75
11099;BME280;12223;42.650;23.364;2023-05-02T12:36:58;94965.63;;;21.29;33.75
11099;BME280;12223;42.650;23.364;2023-05-02T12:39:35;94966.16;;;20.87;32.97
11099;BME280;12223;42.650;23.364;2023-05-02T12:42:09;94932.75;;;20.64;34.40
11099;BME280;12223;42.650;23.364;2023-05-02T12:44:37;94944.50;;;20.73;33.43
11099;BME280;12223;42.650;23.364;2023-05-02T12:47:08;94950.28;;;20.46;33.62
11099;BME280;12223;42.650;23.364;2023-05-02T12:49:50;94939.47;;;20.62;33.33
11099;BME280;12223;42.650;23.364;2023-05-02T12:52:44;94943.09;;;20.81;33.24
11099;BME280;12223;42.650;23.364;2023-05-02T12:55:25;94941.00;;;20.78;33.74
11099;BME280;12223;42.650;23.364;2023-05-02T12:57:59;94933.28;;;21.00;33.62
11099;BME280;12223;42.650;23.364;2023-05-02T13:00:28;94940.69;;;20.84;33.24
11099;BME280;12223;42.650;23.364;2023-05-02T13:02:58;94928.28;;;20.88;33.17
11099;BME280;12223;42.650;23.364;2023-05-02T13:05:29;94944.81;;;20.67;33.17
11099;BME280;12223;42.650;23.364;2023-05-02T13:07:56;94942.06;;;20.77;33.16
11099;BME280;12223;42.650;23.364;2023-05-02T13:10:26;94945.47;;;20.43;33.19
11099;BME280;12223;42.650;23.364;2023-05-02T13:12:55;94925.88;;;20.43;33.35
11099;BME280;12223;42.650;23.364;2023-05-02T13:15:27;94934.75;;;20.49;33.33
11099;BME280;12223;42.650;23.364;2023-05-02T13:17:56;94958.31;;;20.52;33.41